Time;durP1;ratioP1;P1;durP2;ratioP2;P2;SDS_P1;SDS_P2;PMS_P1;PMS_P2;Temp;Humidity;BMP_temperature;BMP_pressure;BME280_temperature;BME280_humidity;BME280_pressure;Samples;Min_cycle;Max_cycle;Signal;HPM_P1;HPM_P2
2021/09/21 00:02:41;;;;;;;8.65;7.85;;;15.70;72.50;;;;;;6222766;28;20907;-77
2021/09/21 00:05:43;;;;;;;8.52;7.63;;;15.60;71.90;;;;;;6222740;28;20452;-77
2021/09/21 00:08:45;;;;;;;9.40;7.47;;;15.70;71.10;;;;;;6222521;28;20518;-77
2021/09/21 00:11:46;;;;;;;8.52;7.63;;;15.70;71.20;;;;;;6223343;28;20528;-78
2021/09/21 00:14:48;;;;;;;9.93;7.78;;;15.70;71.40;;;;;;6222575;28;20547;-78
2021/09/21 00:17:52;;;;;;;8.43;7.43;;;15.80;71.10;;;;;;6221539;28;21138;-77
2021/09/21 00:20:54;;;;;;;14.30;7.85;;;15.80;69.70;;;;;;6220286;28;20439;-77
2021/09/21 00:23:56;;;;;;;8.77;7.85;;;15.80;70.00;;;;;;6222851;28;20849;-77
2021/09/21 00:26:58;;;;;;;8.48;7.70;;;15.80;70.00;;;;;;6222360;28;20416;-77
2021/09/21 00:30:00;;;;;;;8.75;7.95;;;15.80;69.60;;;;;;6222074;28;20416;-77
2021/09/21 00:33:05;;;;;;;7.82;6.53;;;15.80;68.50;;;;;;6222471;28;20481;-78
2021/09/21 00:36:06;;;;;;;8.52;7.57;;;15.80;67.80;;;;;;6222744;28;20522;-78
2021/09/21 00:39:11;;;;;;;8.32;7.53;;;15.80;67.30;;;;;;6222130;28;20432;-77
2021/09/21 00:42:14;;;;;;;7.72;7.03;;;15.80;68.30;;;;;;6222109;28;20567;-77
2021/09/21 00:45:18;;;;;;;8.77;6.78;;;15.80;68.10;;;;;;6222203;28;20453;-77
2021/09/21 00:48:22;;;;;;;7.20;6.50;;;15.80;67.90;;;;;;6223585;28;20535;-77
2021/09/21 00:51:24;;;;;;;7.07;6.38;;;15.80;68.00;;;;;;6221812;28;20470;-78
2021/09/21 00:54:27;;;;;;;6.72;6.13;;;15.80;67.00;;;;;;6222503;28;20932;-77
2021/09/21 00:57:31;;;;;;;8.00;7.20;;;15.80;66.80;;;;;;6221815;28;20885;-77
2021/09/21 01:00:33;;;;;;;7.03;6.32;;;15.90;66.70;;;;;;6223495;28;20559;-77
2021/09/21 01:03:36;;;;;;;7.35;6.65;;;15.70;65.50;;;;;;6222366;28;20755;-78
2021/09/21 01:06:38;;;;;;;7.50;6.80;;;15.60;66.50;;;;;;6221815;28;20416;-78
2021/09/21 01:09:42;;;;;;;7.10;6.40;;;15.50;66.20;;;;;;6221121;28;21036;-77
2021/09/21 01:12:44;;;;;;;8.48;7.65;;;15.40;67.00;;;;;;6221267;28;20522;-77
2021/09/21 01:15:46;;;;;;;6.80;6.20;;;15.40;67.40;;;;;;6221632;28;20466;-77
2021/09/21 01:18:50;;;;;;;8.82;6.80;;;15.30;67.50;;;;;;6220827;28;20504;-77
2021/09/21 01:21:54;;;;;;;8.53;7.63;;;15.30;67.60;;;;;;6221197;28;20464;-77
2021/09/21 01:24:56;;;;;;;6.82;6.22;;;15.30;67.70;;;;;;6221176;28;20436;-77
2021/09/21 01:27:58;;;;;;;7.10;6.43;;;15.30;67.70;;;;;;6221461;28;20519;-78
2021/09/21 01:30:59;;;;;;;7.50;6.70;;;15.30;67.00;;;;;;6220494;28;20906;-77
2021/09/21 01:34:02;;;;;;;8.82;8.00;;;15.30;66.90;;;;;;6220678;28;20484;-77
2021/09/21 01:37:11;;;;;;;7.60;6.90;;;15.30;67.00;;;;;;6220923;28;20571;-77
2021/09/21 01:40:13;;;;;;;8.43;7.13;;;15.20;67.10;;;;;;6221243;28;20464;-77
2021/09/21 01:43:15;;;;;;;7.43;6.72;;;15.10;68.50;;;;;;6220673;28;20944;-77
2021/09/21 01:46:19;;;;;;;7.90;7.10;;;15.10;67.80;;;;;;6220413;28;20981;-77
2021/09/21 01:49:21;;;;;;;8.93;7.18;;;15.10;68.10;;;;;;6220211;28;20847;-76
2021/09/21 01:52:28;;;;;;;8.32;7.10;;;15.20;67.70;;;;;;6221226;28;20447;-77
2021/09/21 01:58:50;;;;;;;9.02;8.07;;;15.30;66.60;;;;;;6220302;28;20405;-77
2021/09/21 02:01:52;;;;;;;9.67;8.07;;;15.20;67.20;;;;;;6220422;28;20503;-77
2021/09/21 02:04:54;;;;;;;8.48;7.60;;;15.10;67.70;;;;;;6220294;28;20519;-77
2021/09/21 02:07:57;;;;;;;9.30;8.40;;;15.00;68.30;;;;;;6220724;28;20428;-78
2021/09/21 02:10:59;;;;;;;7.53;6.82;;;15.00;68.70;;;;;;6220023;28;20937;-76
2021/09/21 02:14:01;;;;;;;7.75;7.05;;;14.90;68.90;;;;;;6220190;28;20515;-77
2021/09/21 02:17:03;;;;;;;7.88;7.18;;;14.90;68.80;;;;;;6220300;28;20448;-77
2021/09/21 02:20:06;;;;;;;10.02;7.72;;;14.90;68.10;;;;;;6220514;28;20428;-77
2021/09/21 02:23:09;;;;;;;8.25;7.38;;;14.90;67.80;;;;;;6219927;28;20555;-77
2021/09/21 02:26:11;;;;;;;8.07;7.27;;;14.90;67.80;;;;;;6220260;28;20542;-78
2021/09/21 02:29:13;;;;;;;9.35;8.00;;;14.80;67.90;;;;;;6219996;28;20409;-77
2021/09/21 02:32:14;;;;;;;9.03;7.80;;;14.70;67.80;;;;;;6220249;28;20910;-78
2021/09/21 02:35:17;;;;;;;9.52;7.60;;;14.60;68.50;;;;;;6219890;28;20428;-78
2021/09/21 02:38:20;;;;;;;8.95;7.78;;;14.50;68.80;;;;;;6220020;28;20409;-78
2021/09/21 02:41:22;;;;;;;8.48;7.68;;;14.40;69.30;;;;;;6223095;28;20455;-77
2021/09/21 02:44:24;;;;;;;8.93;8.05;;;14.40;69.30;;;;;;6224956;28;20472;-77
2021/09/21 02:47:25;;;;;;;9.70;7.97;;;14.30;68.80;;;;;;6224494;28;20491;-77
2021/09/21 02:50:27;;;;;;;9.52;8.52;;;14.30;68.70;;;;;;6224246;28;20584;-77
2021/09/21 02:53:31;;;;;;;8.85;8.05;;;14.20;69.10;;;;;;6224539;28;20478;-77
2021/09/21 02:56:33;;;;;;;9.70;8.13;;;14.30;69.20;;;;;;6224730;28;20877;-78
2021/09/21 02:59:34;;;;;;;9.23;8.37;;;14.40;68.90;;;;;;6224074;28;20459;-77
2021/09/21 03:02:37;;;;;;;8.88;8.07;;;14.50;68.10;;;;;;6224166;28;20915;-77
2021/09/21 03:05:41;;;;;;;9.20;8.30;;;14.50;68.40;;;;;;6223984;28;20837;-77
2021/09/21 03:08:45;;;;;;;9.30;8.40;;;14.40;69.00;;;;;;6223924;28;20466;-79
2021/09/21 03:11:49;;;;;;;8.40;7.30;;;14.50;69.00;;;;;;6224399;28;20551;-77
2021/09/21 03:18:07;;;;;;;8.40;7.60;;;14.40;69.00;;;;;;6211756;28;20400;-77
2021/09/21 03:21:09;;;;;;;8.20;7.40;;;14.50;68.10;;;;;;6223837;28;20471;-78
2021/09/21 03:24:12;;;;;;;8.15;7.35;;;14.50;67.60;;;;;;6223996;28;20487;-77
2021/09/21 03:27:14;;;;;;;8.68;7.88;;;14.60;67.50;;;;;;6223656;28;20409;-78
2021/09/21 03:30:16;;;;;;;8.23;7.47;;;14.50;66.80;;;;;;6223309;28;20493;-77
2021/09/21 03:33:18;;;;;;;7.82;7.13;;;14.60;67.20;;;;;;6223642;28;20448;-76
2021/09/21 03:36:20;;;;;;;9.52;8.38;;;14.60;66.30;;;;;;6223852;28;20801;-77
2021/09/21 03:39:23;;;;;;;8.57;7.67;;;14.60;66.50;;;;;;6223026;28;20409;-77
2021/09/21 03:42:25;;;;;;;8.30;7.50;;;14.60;66.10;;;;;;6223480;28;20439;-78
2021/09/21 03:45:27;;;;;;;8.85;7.70;;;14.60;66.10;;;;;;6223420;28;20424;-78
2021/09/21 03:48:29;;;;;;;8.05;7.35;;;14.50;65.30;;;;;;6223384;28;20934;-77
2021/09/21 03:51:31;;;;;;;8.95;6.45;;;14.60;65.70;;;;;;6222106;28;20543;-77
2021/09/21 03:54:34;;;;;;;7.72;6.93;;;14.60;65.70;;;;;;6222986;28;20421;-77
2021/09/21 03:57:36;;;;;;;8.23;7.50;;;14.40;66.00;;;;;;6223223;28;20452;-78
2021/09/21 04:00:37;;;;;;;8.18;7.45;;;14.40;66.10;;;;;;6222594;28;20918;-78
2021/09/21 04:03:39;;;;;;;9.25;7.75;;;14.50;65.70;;;;;;6223271;28;20432;-77
2021/09/21 04:06:41;;;;;;;7.50;6.82;;;14.50;65.60;;;;;;6222848;28;20504;-77
2021/09/21 04:09:44;;;;;;;9.50;7.53;;;14.50;65.20;;;;;;6222458;28;20462;-77
2021/09/21 04:12:46;;;;;;;8.02;7.00;;;14.50;65.60;;;;;;6222806;28;20530;-78
2021/09/21 04:15:48;;;;;;;7.95;6.95;;;14.50;65.00;;;;;;6222780;28;20463;-78
2021/09/21 04:18:50;;;;;;;12.13;8.40;;;14.50;65.90;;;;;;6222403;28;20413;-78
2021/09/21 04:21:52;;;;;;;7.93;7.22;;;14.60;65.40;;;;;;6222609;28;20508;-77
2021/09/21 04:24:55;;;;;;;8.65;6.95;;;14.60;64.60;;;;;;6222515;28;20482;-77
2021/09/21 04:27:57;;;;;;;8.70;7.88;;;14.70;64.50;;;;;;6222461;28;20916;-77
2021/09/21 04:31:08;;;;;;;8.30;7.45;;;14.60;64.10;;;;;;6221853;28;20933;-77
2021/09/21 04:34:13;;;;;;;7.63;6.80;;;14.60;64.40;;;;;;6222023;28;20424;-77
2021/09/21 04:37:15;;;;;;;8.05;7.05;;;14.50;64.10;;;;;;6222108;28;20419;-77
2021/09/21 04:40:19;;;;;;;7.82;7.13;;;14.60;64.60;;;;;;6222598;28;20460;-76
2021/09/21 04:43:21;;;;;;;9.55;8.05;;;14.50;64.80;;;;;;6223327;28;20898;-75
2021/09/21 04:46:22;;;;;;;8.05;7.32;;;14.50;64.90;;;;;;6222017;28;20973;-75
2021/09/21 04:49:24;;;;;;;8.93;7.85;;;14.50;64.50;;;;;;6221493;28;20444;-76
2021/09/21 04:52:26;;;;;;;8.40;7.50;;;14.50;64.70;;;;;;6222180;28;20478;-75
2021/09/21 04:55:29;;;;;;;8.18;7.38;;;14.50;64.60;;;;;;6221439;28;20507;-76
2021/09/21 04:58:31;;;;;;;9.73;8.15;;;14.50;64.60;;;;;;6221006;28;20420;-76
2021/09/21 05:01:33;;;;;;;7.97;7.28;;;14.60;65.50;;;;;;6221313;28;20917;-76
2021/09/21 05:04:35;;;;;;;9.73;8.82;;;14.60;64.50;;;;;;6220629;28;20432;-76
2021/09/21 05:07:37;;;;;;;8.68;7.60;;;14.60;64.90;;;;;;6221647;28;20579;-76
2021/09/21 05:10:40;;;;;;;9.52;7.82;;;14.60;65.10;;;;;;6220725;28;20451;-76
2021/09/21 05:13:42;;;;;;;9.55;7.72;;;14.60;64.10;;;;;;6221127;28;20551;-76
2021/09/21 05:16:44;;;;;;;9.52;8.05;;;14.60;64.50;;;;;;6220873;28;20432;-75
2021/09/21 05:19:45;;;;;;;9.38;8.35;;;14.60;64.30;;;;;;6221189;28;20571;-75
2021/09/21 05:22:51;;;;;;;9.25;8.35;;;14.60;64.10;;;;;;6220926;28;20437;-75
2021/09/21 05:25:54;;;;;;;8.90;7.90;;;14.60;64.70;;;;;;6220706;28;20424;-76
2021/09/21 05:28:56;;;;;;;8.75;7.90;;;14.70;64.80;;;;;;6220601;28;20424;-76
2021/09/21 05:31:58;;;;;;;9.45;8.55;;;14.60;64.30;;;;;;6220898;28;20464;-75
2021/09/21 05:35:00;;;;;;;8.65;7.90;;;14.60;64.70;;;;;;6254945;22;20463;-76
2021/09/21 05:38:02;;;;;;;9.43;8.43;;;14.60;65.50;;;;;;6245355;28;20662;-77
2021/09/21 05:41:05;;;;;;;8.95;8.13;;;14.50;65.20;;;;;;6245173;28;20483;-77
2021/09/21 05:44:07;;;;;;;9.57;7.93;;;14.50;65.70;;;;;;6245667;28;20874;-77
2021/09/21 05:47:11;;;;;;;9.35;8.35;;;14.50;65.70;;;;;;6245270;28;20625;-77
2021/09/21 05:50:14;;;;;;;10.70;8.30;;;14.50;66.20;;;;;;6244389;28;20415;-77
2021/09/21 05:53:16;;;;;;;9.43;8.38;;;14.50;66.00;;;;;;6241850;28;20446;-77
2021/09/21 05:56:19;;;;;;;8.63;7.93;;;14.60;66.70;;;;;;6249170;28;21017;-77
2021/09/21 05:59:21;;;;;;;9.15;8.23;;;14.70;67.20;;;;;;6247340;28;20473;-78
2021/09/21 06:02:23;;;;;;;9.38;8.57;;;14.70;66.10;;;;;;6245082;28;20445;-77
2021/09/21 06:05:25;;;;;;;12.20;8.30;;;14.90;66.60;;;;;;6245352;28;20776;-77
2021/09/21 06:08:27;;;;;;;10.18;8.85;;;14.90;65.70;;;;;;6245622;28;20473;-77
2021/09/21 06:11:33;;;;;;;9.68;7.75;;;15.00;66.40;;;;;;6246970;28;20482;-78
2021/09/21 06:14:35;;;;;;;9.45;8.57;;;15.10;65.30;;;;;;6247344;28;20544;-77
2021/09/21 06:17:37;;;;;;;8.93;8.03;;;15.10;64.90;;;;;;6252054;28;20976;-78
2021/09/21 06:20:39;;;;;;;9.10;8.20;;;15.20;65.20;;;;;;6249724;28;20510;-76
2021/09/21 06:23:41;;;;;;;13.25;7.55;;;15.20;64.90;;;;;;6248039;28;20460;-77
2021/09/21 06:26:44;;;;;;;9.63;8.50;;;15.10;64.10;;;;;;6245318;28;20921;-77
2021/09/21 06:29:46;;;;;;;11.10;8.52;;;15.10;65.10;;;;;;6238860;28;20455;-77
2021/09/21 06:32:49;;;;;;;9.27;8.38;;;15.20;64.30;;;;;;6243825;28;20507;-77
2021/09/21 06:35:51;;;;;;;8.52;7.63;;;15.20;63.70;;;;;;6236250;28;20432;-77
2021/09/21 06:38:53;;;;;;;9.48;8.07;;;15.20;63.80;;;;;;6233296;28;21012;-77
2021/09/21 06:41:56;;;;;;;8.75;7.85;;;15.20;63.30;;;;;;6224488;28;20425;-77
2021/09/21 06:44:58;;;;;;;8.67;7.77;;;15.30;63.30;;;;;;6225874;28;20416;-77
2021/09/21 06:47:59;;;;;;;9.40;8.40;;;15.50;62.60;;;;;;6226355;28;20509;-77
2021/09/21 06:51:01;;;;;;;10.55;7.95;;;15.70;63.10;;;;;;6235161;28;20822;-77
2021/09/21 06:54:03;;;;;;;8.13;7.32;;;15.80;62.60;;;;;;6249172;28;20492;-76
2021/09/21 06:57:06;;;;;;;9.43;8.60;;;15.90;62.70;;;;;;6253057;28;20501;-77
2021/09/21 07:00:10;;;;;;;9.48;8.52;;;16.20;61.30;;;;;;6251983;28;20513;-77
2021/09/21 07:03:12;;;;;;;10.95;8.20;;;16.20;61.10;;;;;;6254506;28;20419;-78
2021/09/21 07:06:14;;;;;;;8.55;7.75;;;16.20;60.90;;;;;;6255405;28;20411;-77
2021/09/21 07:09:16;;;;;;;8.93;8.10;;;16.20;60.00;;;;;;6253842;28;20454;-77
2021/09/21 07:12:19;;;;;;;11.52;8.65;;;16.20;60.40;;;;;;6254594;28;20435;-77
2021/09/21 07:15:23;;;;;;;9.50;8.50;;;16.10;60.70;;;;;;6255428;28;20525;-78
2021/09/21 07:18:24;;;;;;;9.50;8.02;;;16.10;61.40;;;;;;6257079;28;20423;-77
2021/09/21 07:21:27;;;;;;;9.07;8.17;;;16.00;61.70;;;;;;6253197;28;20502;-77
2021/09/21 07:24:29;;;;;;;11.55;8.95;;;15.90;62.50;;;;;;6261075;28;20495;-77
2021/09/21 07:27:33;;;;;;;11.52;9.38;;;15.90;63.30;;;;;;6261063;28;20426;-78
2021/09/21 07:30:36;;;;;;;11.00;8.10;;;16.10;62.60;;;;;;6259716;28;20442;-77
2021/09/21 07:33:38;;;;;;;11.25;8.50;;;16.20;60.90;;;;;;6260730;28;20451;-77
2021/09/21 07:36:40;;;;;;;9.80;8.90;;;16.30;60.80;;;;;;6259559;28;20457;-77
2021/09/21 07:39:42;;;;;;;9.40;8.50;;;16.30;61.20;;;;;;6259983;28;20480;-77
2021/09/21 07:42:45;;;;;;;9.55;8.73;;;16.40;60.90;;;;;;6258893;28;20469;-77
2021/09/21 07:45:47;;;;;;;8.60;7.80;;;16.70;59.70;;;;;;6260558;28;20439;-78
2021/09/21 07:48:48;;;;;;;9.68;8.68;;;16.80;59.90;;;;;;6258785;28;20427;-77
2021/09/21 07:51:50;;;;;;;9.27;8.47;;;16.90;59.20;;;;;;6249951;28;20466;-78
2021/09/21 07:54:52;;;;;;;9.32;8.43;;;17.10;58.50;;;;;;6256210;28;20513;-78
2021/09/21 07:57:55;;;;;;;11.05;8.73;;;17.30;57.80;;;;;;6257271;28;20429;-77
2021/09/21 08:00:57;;;;;;;9.40;8.43;;;17.30;56.40;;;;;;6255012;28;20456;-77
2021/09/21 08:03:59;;;;;;;10.32;9.32;;;17.20;56.70;;;;;;6258108;28;20492;-78
2021/09/21 08:07:01;;;;;;;8.73;7.88;;;17.30;57.80;;;;;;6254122;28;20916;-78
2021/09/21 08:10:05;;;;;;;9.40;8.30;;;17.40;55.90;;;;;;6249600;28;20466;-77
2021/09/21 08:13:08;;;;;;;9.95;8.30;;;17.40;55.60;;;;;;6248356;28;20463;-77
2021/09/21 08:16:10;;;;;;;15.38;8.13;;;17.20;56.10;;;;;;6247899;28;20558;-77
2021/09/21 08:19:12;;;;;;;8.70;7.85;;;17.30;57.00;;;;;;6245986;28;20517;-77
2021/09/21 08:22:14;;;;;;;9.52;7.97;;;17.30;56.70;;;;;;6238921;28;20936;-77
2021/09/21 08:25:18;;;;;;;8.38;7.57;;;17.80;55.40;;;;;;6246641;28;20444;-77
2021/09/21 08:28:21;;;;;;;9.30;8.02;;;17.90;54.80;;;;;;6249456;28;20435;-77
2021/09/21 08:31:23;;;;;;;8.40;7.35;;;18.00;55.20;;;;;;6247405;28;20508;-78
2021/09/21 08:34:26;;;;;;;8.77;7.60;;;18.20;54.10;;;;;;6187087;28;1766136;-77
2021/09/21 08:37:28;;;;;;;8.82;7.82;;;18.30;53.70;;;;;;6245902;28;20419;-77
2021/09/21 08:40:31;;;;;;;8.43;7.38;;;18.40;53.80;;;;;;6246321;28;20523;-77
2021/09/21 08:43:34;;;;;;;8.43;7.63;;;18.60;52.40;;;;;;6246927;28;20425;-77
2021/09/21 08:46:36;;;;;;;8.75;7.95;;;18.90;51.40;;;;;;6246908;28;20455;-77
2021/09/21 08:49:38;;;;;;;8.55;7.75;;;19.10;50.90;;;;;;6246203;28;21154;-77
2021/09/21 08:52:41;;;;;;;8.63;7.83;;;19.20;51.00;;;;;;6239219;28;20441;-77
2021/09/21 08:55:43;;;;;;;7.45;6.85;;;19.10;51.80;;;;;;6247173;28;20431;-77
2021/09/21 08:58:57;;;;;;;7.07;6.25;;;19.20;51.10;;;;;;6246566;28;20461;-77
2021/09/21 09:02:05;;;;;;;8.00;7.30;;;19.40;50.00;;;;;;6247002;28;20777;-77
2021/09/21 13:12:43;;;;;;;6.53;5.40;;;21.90;40.70;;;;;;6338233;27;20363;-77
2021/09/21 13:15:45;;;;;;;5.72;5.22;;;22.40;40.80;;;;;;6291474;28;20463;-78
2021/09/21 13:18:48;;;;;;;7.40;6.00;;;23.40;38.90;;;;;;6293225;28;20466;-78
2021/09/21 13:21:50;;;;;;;6.93;5.35;;;24.30;37.20;;;;;;6302583;28;20536;-79
2021/09/21 13:24:52;;;;;;;8.52;5.60;;;24.90;35.20;;;;;;6313925;28;20458;-78
2021/09/21 13:27:56;;;;;;;6.88;6.13;;;25.30;34.80;;;;;;6291084;28;20433;-77
2021/09/21 13:30:58;;;;;;;8.10;5.22;;;25.60;33.70;;;;;;6291292;28;20423;-77
2021/09/21 13:34:00;;;;;;;6.03;5.18;;;25.60;33.80;;;;;;6289566;28;20545;-77
2021/09/21 13:37:02;;;;;;;5.95;5.38;;;26.10;33.10;;;;;;6290262;28;20468;-77
2021/09/21 13:40:05;;;;;;;6.03;5.53;;;26.50;32.80;;;;;;6269005;28;20827;-78
2021/09/21 13:43:08;;;;;;;5.00;4.23;;;26.40;32.00;;;;;;6283399;28;20485;-77
2021/09/21 13:46:10;;;;;;;5.82;5.22;;;25.90;33.10;;;;;;6265784;28;20441;-78
2021/09/21 13:49:14;;;;;;;6.95;5.45;;;25.70;33.90;;;;;;6267637;28;20422;-77
2021/09/21 13:52:16;;;;;;;5.30;4.77;;;25.50;32.90;;;;;;6290034;28;21002;-78
2021/09/21 13:55:19;;;;;;;6.15;5.57;;;24.80;33.70;;;;;;6289525;28;20415;-77
2021/09/21 13:58:23;;;;;;;6.90;5.22;;;23.90;35.80;;;;;;6289391;28;20409;-77
2021/09/21 14:01:24;;;;;;;6.60;5.07;;;23.70;36.50;;;;;;6288836;28;20447;-77
2021/09/21 14:04:26;;;;;;;6.47;5.07;;;23.70;37.40;;;;;;6289480;28;20490;-77
2021/09/21 14:07:28;;;;;;;5.97;5.40;;;23.50;36.90;;;;;;6290482;28;20464;-77
2021/09/21 14:10:30;;;;;;;6.00;5.40;;;23.10;38.30;;;;;;6289369;28;21002;-78
2021/09/21 14:13:33;;;;;;;7.65;5.90;;;23.10;38.30;;;;;;6291061;28;20470;-77
2021/09/21 14:16:35;;;;;;;6.60;5.50;;;23.10;36.70;;;;;;6289104;28;20487;-78
2021/09/21 14:19:37;;;;;;;6.45;5.82;;;22.90;38.30;;;;;;6290113;28;20428;-77
2021/09/21 14:22:39;;;;;;;6.15;5.53;;;22.80;37.70;;;;;;6280630;28;20914;-77
2021/09/21 14:25:41;;;;;;;5.82;5.28;;;23.10;38.10;;;;;;6275788;28;20498;-78
2021/09/21 14:28:44;;;;;;;5.88;5.38;;;23.20;37.60;;;;;;6274280;28;20483;-77
2021/09/21 14:31:46;;;;;;;6.37;5.73;;;23.50;36.90;;;;;;6274942;28;20479;-78
2021/09/21 14:34:48;;;;;;;7.55;6.22;;;23.50;36.60;;;;;;6274766;28;20506;-78
2021/09/21 14:37:52;;;;;;;6.57;5.97;;;23.20;37.40;;;;;;6275077;28;20457;-77
2021/09/21 14:40:54;;;;;;;6.68;6.07;;;23.30;35.80;;;;;;6275462;28;20530;-77
2021/09/21 14:43:57;;;;;;;6.47;5.10;;;23.20;37.20;;;;;;6275621;28;20526;-77
2021/09/21 14:46:59;;;;;;;7.22;5.45;;;23.40;37.50;;;;;;6275056;28;20445;-77
2021/09/21 14:50:02;;;;;;;5.60;5.10;;;23.50;35.90;;;;;;6275211;28;20457;-78
2021/09/21 14:53:05;;;;;;;6.95;5.18;;;23.40;37.00;;;;;;6275357;28;20460;-77
2021/09/21 14:56:07;;;;;;;5.47;4.97;;;23.50;37.50;;;;;;6275217;28;20429;-78
2021/09/21 14:59:10;;;;;;;5.88;5.28;;;23.60;36.10;;;;;;6274728;28;20878;-77
2021/09/21 15:02:12;;;;;;;5.90;5.40;;;23.70;36.80;;;;;;6275354;28;20453;-77
2021/09/21 15:05:14;;;;;;;5.85;5.25;;;23.40;36.80;;;;;;6275183;28;20421;-78
2021/09/21 15:08:16;;;;;;;11.05;6.47;;;23.10;37.90;;;;;;6275753;28;20461;-78
2021/09/21 15:11:18;;;;;;;6.18;5.57;;;22.80;37.10;;;;;;6274123;28;21045;-78
2021/09/21 15:14:22;;;;;;;9.90;5.70;;;22.40;38.30;;;;;;6275131;28;20417;-77
2021/09/21 15:17:23;;;;;;;6.17;5.57;;;22.30;39.40;;;;;;6288328;28;20414;-77
2021/09/21 15:20:25;;;;;;;6.13;5.63;;;21.90;39.90;;;;;;6311195;28;20502;-77
2021/09/21 15:23:28;;;;;;;6.53;5.25;;;21.70;40.00;;;;;;6275219;28;20444;-78
2021/09/21 15:26:29;;;;;;;5.63;5.07;;;21.30;41.10;;;;;;6289913;28;20465;-78
2021/09/21 15:29:33;;;;;;;6.90;5.40;;;21.10;42.50;;;;;;6298128;28;20423;-77
2021/09/21 15:32:34;;;;;;;8.68;5.60;;;21.10;43.40;;;;;;6298888;28;20492;-78
2021/09/21 15:35:37;;;;;;;5.50;5.00;;;21.00;42.00;;;;;;6297719;28;20613;-77
2021/09/21 15:38:38;;;;;;;5.95;5.35;;;20.90;42.50;;;;;;6297265;28;20408;-77
2021/09/21 15:41:41;;;;;;;5.93;5.35;;;20.90;43.40;;;;;;6295309;28;20552;-77
2021/09/21 15:44:45;;;;;;;6.23;5.33;;;21.10;43.60;;;;;;6295874;28;20466;-77
2021/09/21 15:47:48;;;;;;;16.88;14.18;;;21.20;41.70;;;;;;6298035;28;20520;-78
2021/09/21 15:50:51;;;;;;;17.10;14.65;;;21.00;43.00;;;;;;6289076;28;20420;-78
2021/09/21 15:53:53;;;;;;;6.47;5.50;;;21.10;44.00;;;;;;6298212;28;20465;-78
2021/09/21 15:56:55;;;;;;;7.15;5.95;;;21.10;41.90;;;;;;6300735;28;20489;-78
2021/09/21 15:59:58;;;;;;;9.48;5.78;;;20.90;43.20;;;;;;6303536;28;20423;-78
2021/09/21 16:03:02;;;;;;;5.47;4.97;;;20.80;43.80;;;;;;6301642;28;20416;-78
2021/09/21 16:06:04;;;;;;;6.30;5.70;;;20.80;43.40;;;;;;6302788;28;20408;-79
2021/09/21 16:09:10;;;;;;;5.95;5.40;;;20.80;43.60;;;;;;6301813;28;20457;-78
2021/09/21 16:12:13;;;;;;;6.45;4.82;;;20.70;45.20;;;;;;6302677;28;20431;-79
2021/09/21 16:15:17;;;;;;;7.65;5.93;;;20.50;43.60;;;;;;6296352;28;20428;-79
2021/09/21 16:18:19;;;;;;;10.05;7.22;;;20.30;50.10;;;;;;6287812;28;20877;-79
2021/09/21 16:21:21;;;;;;;9.20;6.57;;;20.20;50.70;;;;;;6303223;28;20420;-78
2021/09/21 16:24:24;;;;;;;6.90;6.25;;;20.10;54.40;;;;;;6301449;28;20504;-79
2021/09/21 16:27:26;;;;;;;7.47;6.13;;;20.00;55.80;;;;;;6304721;28;20416;-78
2021/09/21 16:30:32;;;;;;;8.38;7.57;;;20.00;51.50;;;;;;6304026;28;20472;-78
2021/09/21 16:33:39;;;;;;;11.10;9.98;;;19.90;59.20;;;;;;6303584;28;20416;-79
2021/09/21 16:36:41;;;;;;;8.02;6.93;;;19.90;57.20;;;;;;6303516;28;20423;-79
2021/09/21 16:39:43;;;;;;;8.77;6.05;;;19.80;52.40;;;;;;6303938;28;20493;-79
2021/09/21 16:42:45;;;;;;;6.45;5.80;;;19.70;50.60;;;;;;6304995;28;20407;-79
2021/09/21 16:45:50;;;;;;;6.05;5.45;;;19.50;49.40;;;;;;6302393;28;20823;-78
2021/09/21 16:48:52;;;;;;;10.02;5.53;;;19.40;48.90;;;;;;6301461;28;20477;-78
2021/09/21 16:51:53;;;;;;;5.47;4.93;;;19.30;49.60;;;;;;6303385;28;20427;-79
2021/09/21 16:54:55;;;;;;;7.13;5.20;;;19.20;49.70;;;;;;6302060;28;20450;-77
2021/09/21 16:57:57;;;;;;;10.38;5.50;;;19.10;53.40;;;;;;6302970;28;20412;-79
2021/09/21 17:01:01;;;;;;;6.40;5.80;;;19.10;55.00;;;;;;6299512;28;20871;-78
2021/09/21 17:04:04;;;;;;;6.20;5.60;;;19.10;54.80;;;;;;6300717;28;20431;-79
2021/09/21 17:07:06;;;;;;;9.80;5.80;;;19.10;56.10;;;;;;6314733;28;20461;-77
2021/09/21 17:10:08;;;;;;;8.57;5.45;;;19.00;57.00;;;;;;6309454;28;20434;-79
2021/09/21 17:13:10;;;;;;;7.47;6.20;;;19.00;57.00;;;;;;6301484;28;20420;-78
2021/09/21 17:16:14;;;;;;;6.57;5.95;;;19.00;58.10;;;;;;6299927;28;20520;-78
2021/09/21 17:19:16;;;;;;;6.93;6.25;;;18.90;58.50;;;;;;6297467;28;20934;-78
2021/09/21 17:22:18;;;;;;;7.30;6.60;;;18.80;59.00;;;;;;6298753;28;20532;-79
2021/09/21 17:25:21;;;;;;;6.63;5.97;;;18.80;59.30;;;;;;6298186;28;20492;-79
2021/09/21 17:28:23;;;;;;;7.35;6.63;;;18.70;59.30;;;;;;6300720;28;20488;-79
2021/09/21 17:31:28;;;;;;;6.93;6.32;;;18.60;59.50;;;;;;6299837;28;20477;-78
2021/09/21 17:34:29;;;;;;;6.47;5.87;;;18.60;60.50;;;;;;6300396;28;20477;-79
2021/09/21 17:37:31;;;;;;;6.10;5.43;;;18.50;60.30;;;;;;6300126;28;20916;-79
2021/09/21 17:40:34;;;;;;;6.90;6.30;;;18.40;60.10;;;;;;6300459;28;20428;-78
2021/09/21 17:43:36;;;;;;;7.23;6.10;;;18.40;61.20;;;;;;6300198;28;20404;-78
2021/09/21 17:46:39;;;;;;;9.52;7.03;;;18.30;62.10;;;;;;6299979;28;20419;-79
2021/09/21 17:52:43;;;;;;;8.80;6.63;;;18.10;63.50;;;;;;6342935;22;20793;-78
2021/09/21 17:55:46;;;;;;;9.97;7.30;;;18.10;64.20;;;;;;6324644;28;20494;-79
2021/09/21 17:58:48;;;;;;;7.75;6.47;;;18.00;63.30;;;;;;6331366;28;20414;-79
2021/09/21 18:01:52;;;;;;;6.10;5.60;;;18.00;63.50;;;;;;6324589;28;20410;-78
2021/09/21 18:04:54;;;;;;;7.70;5.95;;;17.90;63.60;;;;;;6325578;28;20428;-77
2021/09/21 18:07:58;;;;;;;6.80;6.10;;;17.90;63.30;;;;;;6324554;28;20843;-77
2021/09/21 18:11:00;;;;;;;8.43;7.05;;;17.90;63.80;;;;;;6323971;28;20410;-77
2021/09/21 18:14:02;;;;;;;8.87;6.40;;;17.80;63.00;;;;;;6323882;28;20398;-77
2021/09/21 18:17:56;;;;;;;7.88;6.75;;;17.80;63.10;;;;;;6324865;28;20491;-78
2021/09/21 18:21:53;;;;;;;8.38;6.85;;;17.70;64.10;;;;;;6302920;28;20398;-78
2021/09/21 18:24:55;;;;;;;7.70;6.28;;;17.60;65.60;;;;;;6211270;28;20863;-78
2021/09/21 18:27:57;;;;;;;8.20;7.40;;;17.50;66.40;;;;;;6314833;28;20465;-76
2021/09/21 18:30:59;;;;;;;9.20;7.30;;;17.40;66.30;;;;;;6323253;28;21015;-79
2021/09/21 18:34:00;;;;;;;7.68;6.97;;;17.30;66.60;;;;;;6325192;28;20463;-79
2021/09/21 18:37:06;;;;;;;10.65;7.85;;;17.20;67.80;;;;;;6326580;28;20441;-79
2021/09/21 18:40:09;;;;;;;11.20;8.13;;;17.10;67.90;;;;;;6325673;28;20510;-79
2021/09/21 18:43:14;;;;;;;7.35;6.65;;;17.00;68.30;;;;;;6325837;28;20443;-76
2021/09/21 18:46:16;;;;;;;10.93;7.93;;;16.80;68.40;;;;;;6324889;28;20497;-78
2021/09/21 18:49:18;;;;;;;7.50;6.80;;;16.70;68.70;;;;;;6326413;28;20433;-78
2021/09/21 18:52:21;;;;;;;8.70;7.55;;;16.70;69.50;;;;;;6328439;28;20499;-78
2021/09/21 18:55:23;;;;;;;9.25;7.50;;;16.60;69.80;;;;;;6327448;28;20506;-78
2021/09/21 18:58:25;;;;;;;9.10;7.82;;;16.60;69.80;;;;;;6326525;28;20414;-79
2021/09/21 19:01:27;;;;;;;8.60;7.78;;;16.50;70.90;;;;;;6326330;28;20438;-79
2021/09/21 19:04:29;;;;;;;7.85;7.15;;;16.40;70.30;;;;;;6328332;28;20864;-79
2021/09/21 19:07:32;;;;;;;9.00;7.18;;;16.30;70.10;;;;;;6328069;28;20421;-79
2021/09/21 19:10:34;;;;;;;8.73;7.97;;;16.20;70.60;;;;;;6327612;28;20462;-81
2021/09/21 19:13:36;;;;;;;8.70;7.63;;;16.10;70.60;;;;;;6327123;28;20409;-79
2021/09/21 19:16:38;;;;;;;8.77;7.97;;;16.10;70.50;;;;;;6328341;28;20821;-78
2021/09/21 19:19:40;;;;;;;12.15;7.68;;;15.90;70.50;;;;;;6326907;28;20425;-80
2021/09/21 19:22:43;;;;;;;8.70;7.88;;;15.80;70.60;;;;;;6327953;28;20491;-79
2021/09/21 19:25:45;;;;;;;8.35;7.55;;;15.70;70.30;;;;;;6327476;28;20413;-79
2021/09/21 19:28:47;;;;;;;7.60;6.90;;;15.60;68.80;;;;;;6327624;28;20430;-78
2021/09/21 19:31:50;;;;;;;7.37;6.57;;;15.50;66.30;;;;;;6328166;28;20496;-78
2021/09/21 19:34:54;;;;;;;7.57;6.88;;;15.50;65.40;;;;;;6328258;28;20443;-79
2021/09/21 19:37:58;;;;;;;7.25;6.45;;;15.50;65.30;;;;;;6328294;28;20962;-78
2021/09/21 19:41:00;;;;;;;9.25;7.00;;;15.50;66.90;;;;;;6327131;28;20462;-81
2021/09/21 19:44:02;;;;;;;7.50;6.72;;;15.50;66.00;;;;;;6327754;28;20479;-78
2021/09/21 19:47:04;;;;;;;8.23;6.60;;;15.50;66.30;;;;;;6327881;28;20421;-78
2021/09/21 19:50:06;;;;;;;7.73;7.00;;;15.40;66.50;;;;;;6325840;28;20445;-78
2021/09/21 19:53:10;;;;;;;8.30;6.97;;;15.40;67.40;;;;;;6327416;28;20444;-78
2021/09/21 19:56:12;;;;;;;8.95;7.15;;;15.30;67.70;;;;;;6327332;28;20457;-80
2021/09/21 19:59:14;;;;;;;7.27;6.47;;;15.30;68.50;;;;;;6326513;28;20433;-78
2021/09/21 20:02:16;;;;;;;8.38;7.57;;;15.20;68.20;;;;;;6335873;28;21181;-78
2021/09/21 20:05:18;;;;;;;8.75;7.85;;;15.10;68.80;;;;;;6327999;28;20495;-78
2021/09/21 20:08:21;;;;;;;8.68;7.03;;;15.00;68.80;;;;;;6326671;28;20449;-79